createdAt,value
2022-08-08T00:02:30.428Z,21.08
2022-08-08T00:05:12.854Z,21.05
2022-08-08T00:08:01.980Z,21.04
2022-08-08T00:10:49.806Z,21.02
2022-08-08T00:14:15.576Z,20.93
2022-08-08T00:17:23.503Z,20.89
2022-08-08T00:20:07.820Z,20.84
2022-08-08T00:22:47.700Z,20.67
2022-08-08T00:25:23.044Z,20.57
2022-08-08T00:27:54.711Z,20.47
2022-08-08T00:30:24.106Z,20.40
2022-08-08T00:33:02.777Z,20.36
2022-08-08T00:35:37.259Z,20.31
2022-08-08T00:38:52.175Z,20.26
2022-08-08T00:42:07.848Z,20.25
2022-08-08T00:44:59.689Z,20.29
2022-08-08T00:48:29.402Z,20.33
2022-08-08T00:51:51.018Z,20.36
2022-08-08T00:55:16.902Z,20.40
2022-08-08T00:58:32.664Z,20.42
2022-08-08T01:01:37.436Z,20.45
2022-08-08T01:05:42.531Z,20.36
2022-08-08T01:09:36.920Z,20.44
2022-08-08T01:12:29.854Z,20.48
2022-08-08T01:15:56.710Z,20.46
2022-08-08T01:18:59.175Z,20.43
2022-08-08T01:22:23.113Z,20.32
2022-08-08T01:25:42.989Z,20.18
2022-08-08T01:29:05.608Z,19.97
2022-08-08T01:32:35.039Z,19.86
2022-08-08T01:35:29.790Z,19.72
2022-08-08T01:38:27.821Z,19.64
2022-08-08T01:41:38.046Z,19.65
2022-08-08T01:44:43.540Z,19.66
2022-08-08T01:48:30.540Z,19.62
2022-08-08T01:51:31.735Z,19.55
2022-08-08T01:55:19.646Z,19.50
2022-08-08T01:59:07.866Z,19.50
2022-08-08T02:02:30.604Z,19.49
2022-08-08T02:05:55.874Z,19.50
2022-08-08T02:08:57.982Z,19.42
2022-08-08T02:11:53.088Z,19.35
2022-08-08T02:14:32.972Z,19.35
2022-08-08T02:17:20.616Z,19.33
2022-08-08T02:20:09.809Z,19.34
2022-08-08T02:23:31.594Z,19.27
2022-08-08T02:26:15.957Z,19.34
2022-08-08T02:28:53.574Z,19.35
2022-08-08T02:32:00.864Z,19.40
2022-08-08T02:35:11.988Z,19.43
2022-08-08T02:38:16.062Z,19.47
2022-08-08T02:41:17.871Z,19.47
2022-08-08T02:45:18.281Z,19.45
2022-08-08T02:48:25.938Z,19.43
2022-08-08T02:51:38.281Z,19.46
2022-08-08T02:55:02.296Z,19.44
2022-08-08T02:58:28.264Z,19.43
2022-08-08T03:01:26.702Z,19.42
2022-08-08T03:05:02.702Z,19.41
2022-08-08T03:08:38.239Z,19.42
2022-08-08T03:11:48.085Z,19.47
2022-08-08T03:15:58.741Z,19.48
2022-08-08T03:17:39.085Z,19.47
2022-08-08T03:20:08.259Z,19.50
2022-08-08T03:22:47.320Z,19.54
2022-08-08T03:25:19.291Z,19.56
2022-08-08T03:28:00.027Z,19.58
2022-08-08T03:30:32.132Z,19.58
2022-08-08T03:33:55.134Z,19.60
2022-08-08T03:36:19.478Z,19.61
2022-08-08T03:38:54.276Z,19.65
2022-08-08T03:42:27.103Z,19.71
2022-08-08T03:44:25.693Z,19.73
2022-08-08T03:46:54.133Z,19.76
2022-08-08T03:50:00.336Z,19.78
2022-08-08T03:52:14.908Z,19.79
2022-08-08T03:55:02.338Z,19.83
2022-08-08T03:58:35.042Z,19.85
2022-08-08T04:00:25.947Z,19.78
2022-08-08T04:03:11.402Z,19.74
2022-08-08T04:05:47.160Z,19.65
2022-08-08T04:08:33.227Z,19.63
2022-08-08T04:11:11.529Z,19.62
2022-08-08T04:14:03.152Z,19.58
2022-08-08T04:16:40.460Z,19.59
2022-08-08T04:19:23.988Z,19.71
2022-08-08T04:21:57.361Z,19.82
2022-08-08T04:24:29.550Z,19.98
2022-08-08T04:27:00.565Z,20.12
2022-08-08T04:29:36.632Z,20.24
2022-08-08T04:32:07.606Z,20.34
2022-08-08T04:34:49.329Z,20.42
2022-08-08T04:37:31.853Z,20.47
2022-08-08T04:40:04.991Z,20.54
2022-08-08T04:42:56.251Z,20.59
2022-08-08T04:45:26.944Z,20.55
2022-08-08T04:47:58.580Z,20.50
2022-08-08T04:50:34.192Z,20.48
2022-08-08T04:53:13.999Z,20.46
2022-08-08T04:55:56.079Z,20.49
2022-08-08T04:58:25.738Z,20.55
2022-08-08T05:00:53.417Z,20.60
2022-08-08T05:04:07.974Z,20.67
2022-08-08T05:06:12.732Z,20.70
2022-08-08T05:08:51.742Z,20.85
2022-08-08T05:11:24.538Z,20.98
2022-08-08T05:14:01.426Z,21.03
2022-08-08T05:16:51.930Z,21.03
2022-08-08T05:20:12.037Z,21.04
2022-08-08T05:22:10.212Z,21.15
2022-08-08T05:24:41.792Z,21.14
2022-08-08T05:27:16.483Z,21.08
2022-08-08T05:29:43.401Z,21.04
2022-08-08T05:32:12.841Z,21.00
2022-08-08T05:34:49.775Z,20.96
2022-08-08T05:37:39.097Z,20.95
2022-08-08T05:40:17.095Z,20.96
2022-08-08T05:42:51.707Z,21.00
2022-08-08T05:45:30.872Z,21.08
2022-08-08T05:48:08.965Z,21.19
2022-08-08T05:50:39.379Z,21.30
2022-08-08T05:53:23.038Z,21.39
2022-08-08T05:56:07.588Z,21.46
2022-08-08T05:58:56.677Z,21.55
2022-08-08T06:01:55.659Z,21.62
2022-08-08T06:04:27.419Z,21.69
2022-08-08T06:07:02.054Z,21.71
2022-08-08T06:09:59.383Z,21.67
2022-08-08T06:12:29.821Z,21.66
2022-08-08T06:15:03.268Z,21.64
2022-08-08T06:18:18.348Z,21.73
2022-08-08T06:20:25.629Z,21.84
2022-08-08T06:22:53.768Z,21.90
2022-08-08T06:26:34.554Z,21.96
2022-08-08T06:28:20.383Z,21.92
2022-08-08T06:31:01.789Z,21.92
2022-08-08T06:34:27.635Z,21.98
2022-08-08T06:36:53.944Z,22.09
2022-08-08T06:39:24.560Z,22.20
2022-08-08T06:41:59.615Z,22.30
2022-08-08T06:44:42.602Z,22.28
2022-08-08T06:47:10.679Z,22.35
2022-08-08T06:49:55.367Z,22.35
2022-08-08T06:52:27.720Z,22.35
2022-08-08T06:54:55.496Z,22.40
2022-08-08T06:57:25.045Z,22.50
2022-08-08T07:00:12.494Z,22.66
2022-08-08T07:02:46.531Z,22.87
2022-08-08T07:05:20.308Z,23.04
2022-08-08T07:08:01.508Z,23.15
2022-08-08T07:10:50.623Z,23.32
2022-08-08T07:13:25.042Z,23.42
2022-08-08T07:16:10.016Z,23.52
2022-08-08T07:19:16.487Z,23.60
2022-08-08T07:22:05.522Z,23.67
2022-08-08T07:24:59.846Z,23.77
2022-08-08T07:27:47.163Z,23.84
2022-08-08T07:30:25.754Z,23.92
2022-08-08T07:32:59.617Z,24.02
2022-08-08T07:35:30.913Z,24.12
2022-08-08T07:38:09.757Z,24.20
2022-08-08T07:40:47.247Z,24.16
2022-08-08T07:43:16.864Z,24.17
2022-08-08T07:46:18.350Z,24.22
2022-08-08T07:48:47.297Z,24.27
2022-08-08T07:51:23.047Z,24.40
2022-08-08T07:54:15.796Z,24.39
2022-08-08T07:57:36.097Z,24.39
2022-08-08T08:00:13.444Z,24.49
2022-08-08T08:03:20.647Z,24.58
2022-08-08T08:05:54.563Z,24.67
2022-08-08T08:09:06.975Z,24.77
2022-08-08T08:11:52.518Z,24.88
2022-08-08T08:14:55.725Z,24.97
2022-08-08T08:17:25.749Z,25.08
2022-08-08T08:20:04.862Z,25.20
2022-08-08T08:22:33.849Z,25.27
2022-08-08T08:25:08.095Z,25.38
2022-08-08T08:27:37.373Z,25.49
2022-08-08T08:30:07.213Z,25.56
2022-08-08T08:32:36.668Z,25.55
2022-08-08T08:35:15.318Z,25.61
2022-08-08T08:38:05.476Z,25.63
2022-08-08T08:40:31.934Z,25.60
2022-08-08T08:43:03.498Z,25.69
2022-08-08T08:45:31.715Z,25.80
2022-08-08T08:48:02.725Z,25.85
2022-08-08T08:50:37.067Z,25.94
2022-08-08T08:53:27.290Z,26.00
2022-08-08T08:56:08.434Z,26.03
2022-08-08T08:58:47.019Z,26.06
2022-08-08T09:01:26.827Z,26.16
2022-08-08T09:04:31.385Z,26.25
2022-08-08T09:06:58.588Z,26.26
2022-08-08T09:09:39.792Z,26.26
2022-08-08T09:12:25.931Z,26.23
2022-08-08T09:14:56.923Z,26.25
2022-08-08T09:17:40.989Z,26.27
2022-08-08T09:21:57.373Z,26.39
2022-08-08T09:23:01.269Z,26.56
2022-08-08T09:25:36.050Z,26.70
2022-08-08T09:28:35.381Z,26.77
2022-08-08T09:31:56.198Z,26.88
2022-08-08T09:34:32.626Z,26.98
2022-08-08T09:37:29.161Z,27.08
2022-08-08T09:40:10.849Z,27.17
2022-08-08T09:42:51.697Z,27.26
2022-08-08T09:46:03.061Z,27.31
2022-08-08T09:48:38.837Z,27.40
2022-08-08T09:51:09.705Z,27.49
2022-08-08T09:54:00.076Z,27.53
2022-08-08T09:56:40.971Z,27.57
2022-08-08T09:59:42.844Z,27.67
2022-08-08T10:02:12.519Z,27.83
2022-08-08T10:04:47.539Z,27.90
2022-08-08T10:07:16.599Z,28.04
2022-08-08T10:09:59.687Z,28.13
2022-08-08T10:12:38.770Z,28.22
2022-08-08T10:15:25.517Z,28.31
2022-08-08T10:18:05.899Z,28.35
2022-08-08T10:20:57.521Z,28.45
2022-08-08T10:23:58.485Z,28.56
2022-08-08T10:26:59.116Z,28.72
2022-08-08T10:29:59.551Z,28.86
2022-08-08T10:32:32.475Z,28.99
2022-08-08T10:35:10.615Z,29.10
2022-08-08T10:37:58.235Z,29.20
2022-08-08T10:40:32.259Z,29.31
2022-08-08T10:43:03.397Z,29.38
2022-08-08T10:45:56.109Z,29.43
2022-08-08T10:48:58.536Z,29.44
2022-08-08T10:51:31.403Z,29.46
2022-08-08T10:54:08.140Z,29.50
2022-08-08T10:56:43.321Z,29.56
2022-08-08T10:59:14.015Z,29.58
2022-08-08T11:01:49.364Z,29.45
2022-08-08T11:04:30.168Z,29.31
2022-08-08T11:07:06.616Z,29.22
2022-08-08T11:09:33.952Z,29.20
2022-08-08T11:12:13.277Z,29.11
2022-08-08T11:14:58.217Z,28.99
2022-08-08T11:17:58.836Z,29.00
2022-08-08T11:20:28.006Z,28.99
2022-08-08T11:23:05.354Z,28.94
2022-08-08T11:25:52.781Z,28.92
2022-08-08T11:28:29.115Z,28.96
2022-08-08T11:31:00.685Z,28.98
2022-08-08T11:33:51.234Z,29.00
2022-08-08T11:36:22.100Z,29.13
2022-08-08T11:38:55.182Z,29.25
2022-08-08T11:41:25.031Z,29.42
2022-08-08T11:43:57.857Z,29.57
2022-08-08T11:46:28.117Z,29.66
2022-08-08T11:48:59.061Z,29.63
2022-08-08T11:51:30.238Z,29.59
2022-08-08T11:54:31.271Z,29.43
2022-08-08T11:57:14.169Z,29.24
2022-08-08T12:00:02.622Z,29.13
2022-08-08T12:02:55.600Z,29.01
2022-08-08T12:05:36.043Z,28.98
2022-08-08T12:08:04.180Z,29.05
2022-08-08T12:10:32.065Z,29.09
2022-08-08T12:13:09.455Z,29.07
2022-08-08T12:15:46.951Z,29.04
2022-08-08T12:18:20.773Z,28.97
2022-08-08T12:20:53.411Z,28.99
2022-08-08T12:23:42.910Z,29.07
2022-08-08T12:26:28.397Z,29.21
2022-08-08T12:29:41.308Z,29.29
2022-08-08T12:32:20.292Z,29.44
2022-08-08T12:35:13.463Z,29.60
2022-08-08T12:38:01.309Z,29.82
2022-08-08T12:40:56.316Z,30.02
2022-08-08T12:43:47.977Z,30.19
2022-08-08T12:46:25.178Z,30.39
2022-08-08T12:49:20.734Z,30.50
2022-08-08T12:51:50.137Z,30.52
2022-08-08T12:54:33.438Z,30.56
2022-08-08T12:57:24.471Z,30.55
2022-08-08T13:00:05.263Z,30.46
2022-08-08T13:02:51.727Z,30.29
2022-08-08T13:05:26.766Z,30.18
2022-08-08T13:08:18.867Z,30.12
2022-08-08T13:10:56.858Z,30.01
2022-08-08T13:13:37.700Z,29.86
2022-08-08T13:16:26.029Z,29.79
2022-08-08T13:19:00.552Z,29.72
2022-08-08T13:21:48.674Z,29.70
2022-08-08T13:24:18.331Z,29.71
2022-08-08T13:27:04.404Z,29.71
2022-08-08T13:29:40.790Z,29.69
2022-08-08T13:32:10.714Z,29.64
2022-08-08T13:34:40.126Z,29.59
2022-08-08T13:37:19.748Z,29.63
2022-08-08T13:40:02.431Z,29.69
2022-08-08T13:42:30.130Z,29.75
2022-08-08T13:44:59.380Z,29.76
2022-08-08T13:47:27.422Z,29.82
2022-08-08T13:50:36.585Z,29.87
2022-08-08T13:52:51.101Z,29.94
2022-08-08T13:55:28.924Z,30.09
2022-08-08T13:58:07.948Z,30.10
2022-08-08T14:00:45.519Z,30.13
2022-08-08T14:03:47.233Z,30.10
2022-08-08T14:06:33.527Z,29.97
2022-08-08T14:08:57.853Z,29.97
2022-08-08T14:11:29.656Z,29.98
2022-08-08T14:14:00.367Z,29.93
2022-08-08T14:16:28.124Z,29.81
2022-08-08T14:18:58.203Z,29.75
2022-08-08T14:21:51.888Z,29.67
2022-08-08T14:24:32.062Z,29.54
2022-08-08T14:26:58.972Z,29.49
2022-08-08T14:29:30.611Z,29.51
2022-08-08T14:32:08.861Z,29.59
2022-08-08T14:34:42.066Z,29.61
2022-08-08T14:37:12.984Z,29.56
2022-08-08T14:40:05.748Z,29.51
2022-08-08T14:42:47.423Z,29.62
2022-08-08T14:45:33.376Z,29.70
2022-08-08T14:48:17.803Z,29.60
2022-08-08T14:51:07.615Z,29.42
2022-08-08T14:53:55.502Z,29.14
2022-08-08T14:56:25.727Z,28.95
2022-08-08T14:58:56.361Z,28.73
2022-08-08T15:01:37.233Z,28.55
2022-08-08T15:04:09.577Z,28.41
2022-08-08T15:06:37.454Z,28.36
2022-08-08T15:09:07.038Z,28.35
2022-08-08T15:11:43.326Z,28.17
2022-08-08T15:14:14.954Z,28.17
2022-08-08T15:16:44.186Z,28.14
2022-08-08T15:19:11.699Z,28.15
2022-08-08T15:21:44.612Z,28.17
2022-08-08T15:24:13.815Z,28.22
2022-08-08T15:26:43.993Z,28.25
2022-08-08T15:29:19.508Z,28.28
2022-08-08T15:32:02.759Z,28.32
2022-08-08T15:34:40.031Z,28.42
2022-08-08T15:37:07.755Z,28.43
2022-08-08T15:39:38.006Z,28.36
2022-08-08T15:42:13.225Z,28.26
2022-08-08T15:44:45.636Z,28.24
2022-08-08T15:47:15.962Z,28.28
2022-08-08T15:49:48.379Z,28.40
2022-08-08T15:52:17.714Z,28.50
2022-08-08T15:54:47.767Z,28.54
2022-08-08T15:57:15.629Z,28.53
2022-08-08T16:00:14.168Z,28.55
2022-08-08T16:02:43.967Z,28.56
2022-08-08T16:05:21.405Z,28.62
2022-08-08T16:07:51.224Z,28.61
2022-08-08T16:13:15.436Z,28.55
2022-08-08T16:13:30.733Z,28.47
2022-08-08T16:15:59.265Z,28.42
2022-08-08T16:18:32.343Z,28.44
2022-08-08T16:21:01.009Z,28.49
2022-08-08T16:23:32.478Z,28.45
2022-08-08T16:26:05.087Z,28.44
2022-08-08T16:28:44.374Z,28.43
2022-08-08T16:31:12.916Z,28.51
2022-08-08T16:33:40.653Z,28.55
2022-08-08T16:36:15.816Z,28.46
2022-08-08T16:38:47.553Z,28.35
2022-08-08T16:41:22.530Z,28.35
2022-08-08T16:43:51.861Z,28.37
2022-08-08T16:46:39.304Z,28.38
2022-08-08T16:49:09.410Z,28.42
2022-08-08T16:55:05.140Z,28.56
2022-08-08T16:55:14.001Z,28.46
2022-08-08T16:57:23.610Z,28.68
2022-08-08T17:00:04.344Z,28.72
2022-08-08T17:02:39.659Z,28.77
2022-08-08T17:05:08.662Z,28.84
2022-08-08T17:07:37.540Z,28.96
2022-08-08T17:10:11.538Z,29.11
2022-08-08T17:12:52.752Z,29.30
2022-08-08T17:15:22.971Z,29.44
2022-08-08T17:18:02.801Z,29.50
2022-08-08T17:20:39.682Z,29.54
2022-08-08T17:23:18.501Z,29.63
2022-08-08T17:25:55.420Z,29.62
2022-08-08T17:28:33.964Z,29.57
2022-08-08T17:31:43.123Z,29.36
2022-08-08T17:34:49.586Z,29.07
2022-08-08T17:37:00.766Z,28.84
2022-08-08T17:40:04.374Z,28.51
2022-08-08T17:42:18.390Z,28.24
2022-08-08T17:44:49.092Z,28.05
2022-08-08T17:47:27.425Z,27.87
2022-08-08T17:50:01.157Z,27.72
2022-08-08T17:52:34.048Z,27.63
2022-08-08T17:55:05.447Z,27.55
2022-08-08T17:57:36.439Z,27.49
2022-08-08T18:00:13.227Z,27.32
2022-08-08T18:02:58.144Z,27.15
2022-08-08T18:05:49.516Z,27.04
2022-08-08T18:08:25.114Z,26.93
2022-08-08T18:11:16.018Z,26.86
2022-08-08T18:13:47.024Z,26.79
2022-08-08T18:16:17.295Z,26.80
2022-08-08T18:18:56.223Z,26.70
2022-08-08T18:22:00.262Z,26.61
2022-08-08T18:24:19.365Z,26.54
2022-08-08T18:26:54.985Z,26.52
2022-08-08T18:29:35.231Z,26.48
2022-08-08T18:32:05.651Z,26.42
2022-08-08T18:34:35.176Z,26.38
2022-08-08T18:37:08.017Z,26.32
2022-08-08T18:39:38.487Z,26.27
2022-08-08T18:42:13.715Z,26.18
2022-08-08T18:44:42.259Z,26.07
2022-08-08T18:47:22.360Z,25.98
2022-08-08T18:49:58.764Z,25.93
2022-08-08T18:52:27.674Z,25.90
2022-08-08T18:55:00.167Z,25.90
2022-08-08T18:57:41.727Z,25.88
2022-08-08T19:00:20.372Z,25.83
2022-08-08T19:02:56.389Z,25.73
2022-08-08T19:05:34.428Z,25.64
2022-08-08T19:08:24.865Z,25.55
2022-08-08T19:11:01.618Z,25.49
2022-08-08T19:13:52.433Z,25.40
2022-08-08T19:16:19.794Z,25.37
2022-08-08T19:18:54.545Z,25.37
2022-08-08T19:21:30.889Z,25.38
2022-08-08T19:24:00.453Z,25.37
2022-08-08T19:26:30.511Z,25.37
2022-08-08T19:28:59.470Z,25.35
2022-08-08T19:31:31.517Z,25.29
2022-08-08T19:34:29.884Z,25.25
2022-08-08T19:36:53.379Z,25.22
2022-08-08T19:39:22.893Z,25.22
2022-08-08T19:41:50.515Z,25.22
2022-08-08T19:44:26.528Z,25.21
2022-08-08T19:47:05.141Z,25.23
2022-08-08T19:49:37.771Z,25.19
2022-08-08T19:52:06.947Z,25.18
2022-08-08T19:54:34.151Z,25.20
2022-08-08T19:57:04.151Z,25.17
2022-08-08T19:59:35.129Z,25.14
2022-08-08T20:02:04.730Z,25.12
2022-08-08T20:04:33.593Z,25.09
2022-08-08T20:07:05.060Z,25.09
2022-08-08T20:09:45.162Z,25.05
2022-08-08T20:12:32.633Z,25.02
2022-08-08T20:15:14.418Z,24.99
2022-08-08T20:17:46.825Z,24.99
2022-08-08T20:20:19.051Z,24.95
2022-08-08T20:22:52.673Z,24.97
2022-08-08T20:25:21.552Z,24.98
2022-08-08T20:27:49.590Z,24.95
2022-08-08T20:30:53.145Z,24.95
2022-08-08T20:33:20.117Z,24.92
2022-08-08T20:35:58.982Z,24.89
2022-08-08T20:38:32.553Z,24.86
2022-08-08T20:41:05.911Z,24.82
2022-08-08T20:43:49.853Z,24.73
2022-08-08T20:46:25.397Z,24.68
2022-08-08T20:48:55.529Z,24.61
2022-08-08T20:51:27.060Z,24.62
2022-08-08T20:54:04.212Z,24.63
2022-08-08T20:57:04.691Z,24.59
2022-08-08T20:59:29.044Z,24.52
2022-08-08T21:02:06.214Z,24.48
2022-08-08T21:04:35.551Z,24.48
2022-08-08T21:07:13.175Z,24.46
2022-08-08T21:10:01.638Z,24.45
2022-08-08T21:12:34.935Z,24.46
2022-08-08T21:15:09.622Z,24.49
2022-08-08T21:17:37.154Z,24.53
2022-08-08T21:20:05.486Z,24.54
2022-08-08T21:22:32.440Z,24.56
2022-08-08T21:24:59.359Z,24.52
2022-08-08T21:28:06.580Z,24.43
2022-08-08T21:30:18.198Z,24.29
2022-08-08T21:32:51.651Z,24.23
2022-08-08T21:36:13.818Z,24.15
2022-08-08T21:38:16.078Z,24.07
2022-08-08T21:40:55.888Z,24.07
2022-08-08T21:43:33.529Z,24.04
2022-08-08T21:48:07.952Z,24.00
2022-08-08T21:48:51.004Z,23.93
2022-08-08T21:52:09.846Z,23.92
2022-08-08T21:54:27.270Z,23.96
2022-08-08T21:56:59.940Z,23.99
2022-08-08T21:59:43.780Z,24.03
2022-08-08T22:02:16.099Z,24.03
2022-08-08T22:04:46.352Z,23.97
2022-08-08T22:07:13.363Z,23.88
2022-08-08T22:09:43.573Z,23.81
2022-08-08T22:12:14.986Z,23.74
2022-08-08T22:14:47.273Z,23.60
2022-08-08T22:17:17.162Z,23.47
2022-08-08T22:20:10.757Z,23.33
2022-08-08T22:22:37.453Z,23.24
2022-08-08T22:25:12.347Z,23.24
2022-08-08T22:28:04.167Z,23.30
2022-08-08T22:30:41.538Z,23.39
2022-08-08T22:33:22.220Z,23.44
2022-08-08T22:36:05.178Z,23.50
2022-08-08T22:38:48.892Z,23.55
2022-08-08T22:41:21.503Z,23.54
2022-08-08T22:44:02.690Z,23.58
2022-08-08T22:46:38.978Z,23.61
2022-08-08T22:49:09.175Z,23.61
2022-08-08T22:51:42.729Z,23.53
2022-08-08T22:54:31.404Z,23.37
2022-08-08T22:57:02.192Z,23.19
2022-08-08T22:59:52.770Z,23.12
2022-08-08T23:02:25.748Z,23.04
2022-08-08T23:05:01.979Z,22.95
2022-08-08T23:07:51.043Z,22.85
2022-08-08T23:10:19.825Z,22.81
2022-08-08T23:12:51.861Z,22.72
2022-08-08T23:16:38.460Z,22.64
2022-08-08T23:18:11.843Z,22.60
2022-08-08T23:20:41.122Z,22.59
2022-08-08T23:23:11.008Z,22.54
2022-08-08T23:25:47.750Z,22.55
2022-08-08T23:28:16.113Z,22.58
2022-08-08T23:30:45.784Z,22.62
2022-08-08T23:33:18.890Z,22.68
2022-08-08T23:36:07.352Z,22.71
2022-08-08T23:38:33.547Z,22.75
2022-08-08T23:41:00.479Z,22.77
2022-08-08T23:43:31.638Z,22.82
2022-08-08T23:49:04.030Z,22.84
2022-08-08T23:49:15.310Z,22.85
2022-08-08T23:52:04.610Z,22.81
2022-08-08T23:54:42.831Z,22.63
2022-08-08T23:57:26.759Z,22.42
